createdAt,value
2018-04-26T00:00:38.069Z,4.00
2018-04-26T00:01:38.140Z,4.00
2018-04-26T00:02:38.175Z,4.00
2018-04-26T00:03:38.215Z,4.00
2018-04-26T00:04:38.297Z,4.00
2018-04-26T00:05:38.311Z,4.00
2018-04-26T00:06:38.465Z,4.00
2018-04-26T00:07:38.417Z,4.00
2018-04-26T00:08:38.469Z,4.00
2018-04-26T00:09:38.494Z,4.00
2018-04-26T00:10:38.578Z,4.00
2018-04-26T00:11:38.593Z,4.00
2018-04-26T00:12:38.635Z,4.00
2018-04-26T00:13:38.695Z,4.00
2018-04-26T00:14:38.752Z,4.00
2018-04-26T00:15:38.786Z,4.00
2018-04-26T00:16:38.924Z,4.00
2018-04-26T00:17:38.895Z,4.00
2018-04-26T00:18:38.955Z,4.00
2018-04-26T00:19:39.015Z,4.00
2018-04-26T00:20:39.047Z,4.00
2018-04-26T00:21:39.211Z,4.00
2018-04-26T00:22:39.126Z,4.00
2018-04-26T00:23:39.376Z,4.00
2018-04-26T00:26:39.333Z,4.00
2018-04-26T00:27:39.344Z,4.00
2018-04-26T00:28:39.401Z,4.00
2018-04-26T00:29:39.453Z,4.00
2018-04-26T00:30:39.505Z,4.00
2018-04-26T00:31:39.648Z,4.00
2018-04-26T00:32:39.583Z,4.00
2018-04-26T00:33:39.668Z,4.00
2018-04-26T00:34:39.714Z,4.00
2018-04-26T00:35:39.748Z,4.00
2018-04-26T00:36:39.883Z,4.00
2018-04-26T00:37:39.864Z,4.00
2018-04-26T00:38:39.885Z,4.00
2018-04-26T00:40:39.986Z,4.00
2018-04-26T00:41:40.033Z,4.00
2018-04-26T00:42:40.074Z,4.00
2018-04-26T00:43:40.117Z,4.00
2018-04-26T00:44:40.170Z,4.00
2018-04-26T00:45:40.215Z,4.00
2018-04-26T00:46:40.351Z,4.00
2018-04-26T00:47:40.521Z,4.00
2018-04-26T00:48:40.358Z,4.00
2018-04-26T00:50:40.448Z,4.00
2018-04-26T00:51:40.594Z,4.00
2018-04-26T00:52:40.541Z,4.00
2018-04-26T00:53:40.576Z,4.00
2018-04-26T00:55:40.667Z,4.00
2018-04-26T00:56:40.832Z,4.00
2018-04-26T00:58:40.820Z,4.00
2018-04-26T00:59:40.864Z,4.00
2018-04-26T01:00:40.902Z,4.00
2018-04-26T01:01:40.975Z,4.00
2018-04-26T01:02:41.006Z,4.00
2018-04-26T01:03:41.065Z,4.00
2018-04-26T01:04:41.109Z,4.00
2018-04-26T01:05:41.157Z,4.00
2018-04-26T01:06:41.300Z,4.00
2018-04-26T01:07:41.334Z,4.00
2018-04-26T01:08:41.312Z,4.00
2018-04-26T01:09:41.354Z,4.00
2018-04-26T01:10:41.399Z,4.00
2018-04-26T01:12:41.590Z,4.00
2018-04-26T01:13:41.555Z,4.00
2018-04-26T01:14:41.602Z,4.00
2018-04-26T01:15:41.610Z,4.00
2018-04-26T01:16:41.659Z,4.00
2018-04-26T01:17:41.839Z,4.00
2018-04-26T01:18:41.756Z,4.00
2018-04-26T01:19:41.808Z,4.00
2018-04-26T01:20:41.863Z,4.00
2018-04-26T01:21:41.910Z,4.00
2018-04-26T01:22:41.952Z,4.00
2018-04-26T01:23:42.085Z,4.00
2018-04-26T01:24:42.041Z,4.00
2018-04-26T01:25:42.287Z,4.00
2018-04-26T01:26:42.168Z,4.00
2018-04-26T01:27:42.184Z,4.00
2018-04-26T01:28:42.344Z,4.00
2018-04-26T01:29:42.265Z,4.00
2018-04-26T01:30:42.326Z,4.00
2018-04-26T01:32:42.416Z,4.00
2018-04-26T01:33:42.473Z,4.00
2018-04-26T01:34:42.646Z,4.00
2018-04-26T01:36:42.654Z,4.00
2018-04-26T01:37:42.662Z,4.00
2018-04-26T01:38:42.699Z,4.00
2018-04-26T01:39:42.842Z,4.00
2018-04-26T01:40:42.782Z,4.00
2018-04-26T01:41:42.826Z,4.00
2018-04-26T01:42:42.877Z,4.00
2018-04-26T01:43:42.950Z,4.00
2018-04-26T01:44:42.984Z,4.00
2018-04-26T01:45:43.137Z,4.00
2018-04-26T01:46:43.164Z,0.00
2018-04-26T01:47:43.115Z,0.00
2018-04-26T01:48:43.155Z,0.00
2018-04-26T01:49:43.434Z,0.00
2018-04-26T01:50:43.259Z,0.00
2018-04-26T01:51:43.314Z,0.00
2018-04-26T01:52:43.374Z,0.00
2018-04-26T01:53:43.396Z,0.00
2018-04-26T01:54:43.422Z,0.00
2018-04-26T01:55:43.592Z,0.00
2018-04-26T01:56:43.629Z,0.00
2018-04-26T01:57:43.587Z,0.00
2018-04-26T01:58:43.630Z,0.00
2018-04-26T01:59:43.675Z,0.00
2018-04-26T02:00:43.722Z,0.00
2018-04-26T02:01:43.755Z,0.00
2018-04-26T02:03:43.878Z,0.00
2018-04-26T02:04:43.947Z,0.00
2018-04-26T02:05:43.944Z,0.00
2018-04-26T02:06:44.119Z,0.00
2018-04-26T02:07:44.047Z,0.00
2018-04-26T02:08:44.092Z,0.00
2018-04-26T02:09:44.220Z,0.00
2018-04-26T02:11:44.341Z,0.00
2018-04-26T02:12:44.590Z,0.00
2018-04-26T02:13:44.314Z,0.00
2018-04-26T02:14:44.364Z,0.00
2018-04-26T02:15:44.412Z,0.00
2018-04-26T02:16:44.479Z,0.00
2018-04-26T02:17:44.526Z,0.00
2018-04-26T02:18:44.561Z,0.00
2018-04-26T02:19:44.630Z,0.00
2018-04-26T02:20:44.640Z,0.00
2018-04-26T02:21:44.680Z,0.00
2018-04-26T02:22:44.842Z,0.00
2018-04-26T02:23:44.784Z,0.00
2018-04-26T02:24:44.831Z,0.00
2018-04-26T02:25:44.903Z,0.00
2018-04-26T02:26:44.916Z,0.00
2018-04-26T02:28:45.018Z,0.00
2018-04-26T02:29:45.086Z,0.00
2018-04-26T02:30:45.106Z,0.00
2018-04-26T02:31:45.159Z,0.00
2018-04-26T02:33:45.371Z,0.00
2018-04-26T02:34:45.288Z,0.00
2018-04-26T02:35:45.347Z,0.00
2018-04-26T02:36:45.399Z,0.00
2018-04-26T02:37:45.441Z,0.00
2018-04-26T02:38:45.508Z,0.00
2018-04-26T02:40:45.601Z,0.00
2018-04-26T02:41:45.603Z,0.00
2018-04-26T02:42:45.687Z,0.00
2018-04-26T02:43:45.831Z,0.00
2018-04-26T02:44:45.741Z,0.00
2018-04-26T02:45:45.807Z,0.00
2018-04-26T02:46:45.847Z,0.00
2018-04-26T02:47:45.889Z,0.00
2018-04-26T02:48:46.035Z,0.00
2018-04-26T02:49:45.992Z,0.00
2018-04-26T02:50:46.026Z,0.00
2018-04-26T02:51:46.105Z,0.00
2018-04-26T02:52:46.147Z,0.00
2018-04-26T02:53:46.183Z,0.00
2018-04-26T02:54:46.328Z,0.00
2018-04-26T02:55:46.289Z,0.00
2018-04-26T02:56:46.301Z,0.00
2018-04-26T02:57:46.354Z,0.00
2018-04-26T02:58:46.390Z,0.00
2018-04-26T02:59:46.561Z,0.00
2018-04-26T03:01:46.582Z,0.00
2018-04-26T03:02:46.593Z,0.00
2018-04-26T03:03:46.633Z,0.00
2018-04-26T03:04:46.670Z,0.00
2018-04-26T03:05:46.827Z,0.00
2018-04-26T03:06:46.792Z,0.00
2018-04-26T03:07:46.814Z,0.00
2018-04-26T03:08:46.854Z,0.00
2018-04-26T03:09:46.897Z,0.00
2018-04-26T03:10:46.974Z,0.00
2018-04-26T03:11:47.086Z,0.00
2018-04-26T03:12:47.073Z,0.00
2018-04-26T03:13:47.086Z,0.00
2018-04-26T03:14:47.160Z,0.00
2018-04-26T03:15:47.186Z,0.00
2018-04-26T03:16:47.228Z,0.00
2018-04-26T03:17:47.389Z,0.00
2018-04-26T03:18:47.426Z,0.00
2018-04-26T03:19:47.362Z,0.00
2018-04-26T03:20:47.421Z,0.00
2018-04-26T03:21:47.465Z,0.00
2018-04-26T03:22:47.500Z,0.00
2018-04-26T03:23:47.552Z,0.00
2018-04-26T03:24:47.640Z,0.00
2018-04-26T03:25:47.662Z,0.00
2018-04-26T03:26:47.696Z,0.00
2018-04-26T03:27:47.756Z,0.00
2018-04-26T03:28:47.887Z,0.00
2018-04-26T03:29:47.938Z,0.00
2018-04-26T03:31:47.912Z,0.00
2018-04-26T03:32:47.990Z,0.00
2018-04-26T03:33:47.997Z,0.00
2018-04-26T03:34:48.082Z,0.00
2018-04-26T03:35:48.102Z,0.00
2018-04-26T03:36:48.143Z,0.00
2018-04-26T03:37:48.221Z,0.00
2018-04-26T03:38:48.236Z,0.00
2018-04-26T03:39:48.404Z,0.00
2018-04-26T03:40:48.349Z,0.00
2018-04-26T03:41:49.575Z,0.00
2018-04-26T03:42:48.418Z,0.00
2018-04-26T03:43:48.471Z,0.00
2018-04-26T03:44:48.687Z,0.00
2018-04-26T03:45:48.547Z,0.00
2018-04-26T03:46:48.643Z,0.00
2018-04-26T03:48:48.711Z,0.00
2018-04-26T03:49:48.773Z,0.00
2018-04-26T03:50:48.934Z,0.00
2018-04-26T03:51:48.846Z,0.00
2018-04-26T03:52:48.887Z,0.00
2018-04-26T03:53:48.956Z,0.00
2018-04-26T03:55:49.011Z,0.00
2018-04-26T03:56:49.169Z,0.00
2018-04-26T03:57:49.127Z,0.00
2018-04-26T03:58:49.163Z,0.00
2018-04-26T03:59:49.243Z,0.00
2018-04-26T04:00:49.266Z,0.00
2018-04-26T04:01:49.407Z,0.00
2018-04-26T04:02:49.376Z,0.00
2018-04-26T04:03:49.388Z,0.00
2018-04-26T04:04:49.434Z,0.00
2018-04-26T04:05:49.507Z,0.00
2018-04-26T04:06:49.637Z,0.00
2018-04-26T04:07:49.572Z,0.00
2018-04-26T04:08:49.627Z,0.00
2018-04-26T04:09:49.663Z,0.00
2018-04-26T04:10:49.716Z,0.00
2018-04-26T04:11:49.766Z,0.00
2018-04-26T04:12:49.938Z,0.00
2018-04-26T04:13:49.892Z,0.00
2018-04-26T04:14:49.915Z,0.00
2018-04-26T04:15:49.928Z,0.00
2018-04-26T04:16:49.999Z,0.00
2018-04-26T04:17:50.126Z,0.00
2018-04-26T04:18:50.089Z,0.00
2018-04-26T04:19:50.162Z,0.00
2018-04-26T04:20:50.177Z,0.00
2018-04-26T04:21:50.207Z,0.00
2018-04-26T04:22:50.314Z,0.00
2018-04-26T04:23:50.301Z,0.00
2018-04-26T04:24:50.353Z,0.00
2018-04-26T04:25:50.394Z,0.00
2018-04-26T04:26:50.457Z,0.00
2018-04-26T04:27:50.588Z,0.00
2018-04-26T04:28:50.636Z,0.00
2018-04-26T04:29:50.583Z,0.00
2018-04-26T04:30:50.654Z,0.00
2018-04-26T04:31:50.671Z,0.00
2018-04-26T04:32:50.717Z,0.00
2018-04-26T04:33:50.873Z,0.00
2018-04-26T04:34:50.912Z,0.00
2018-04-26T04:35:50.868Z,0.00
2018-04-26T04:36:50.915Z,0.00
2018-04-26T04:37:50.945Z,0.00
2018-04-26T04:38:50.992Z,0.00
2018-04-26T04:39:51.091Z,0.00
2018-04-26T04:40:51.085Z,0.00
2018-04-26T04:41:51.139Z,0.00
2018-04-26T04:42:51.186Z,0.00
2018-04-26T04:43:51.226Z,0.00
2018-04-26T04:44:51.392Z,0.00
2018-04-26T04:45:51.409Z,0.00
2018-04-26T04:46:51.356Z,0.00
2018-04-26T04:47:51.406Z,0.00
2018-04-26T04:48:51.459Z,0.00
2018-04-26T04:49:51.493Z,0.00
2018-04-26T04:50:51.572Z,0.00
2018-04-26T04:51:51.698Z,0.00
2018-04-26T04:52:51.632Z,0.00
2018-04-26T04:53:51.682Z,0.00
2018-04-26T04:54:51.736Z,0.00
2018-04-26T04:55:51.791Z,0.00
2018-04-26T04:57:51.866Z,0.00
2018-04-26T04:58:51.903Z,0.00
2018-04-26T04:59:51.955Z,0.00
2018-04-26T05:00:51.996Z,0.00
2018-04-26T05:01:52.044Z,0.00
2018-04-26T05:02:52.297Z,0.00
2018-04-26T05:03:52.138Z,0.00
2018-04-26T05:04:52.206Z,0.00
2018-04-26T05:05:52.229Z,0.00
2018-04-26T05:06:52.282Z,0.00
2018-04-26T05:07:52.368Z,0.00
2018-04-26T05:08:52.371Z,0.00
2018-04-26T05:09:52.434Z,0.00
2018-04-26T05:10:52.456Z,0.00
2018-04-26T05:11:52.702Z,0.00
2018-04-26T05:12:52.545Z,0.00
2018-04-26T05:13:53.207Z,0.00
2018-04-26T05:14:52.638Z,0.00
2018-04-26T05:15:52.695Z,0.00
2018-04-26T05:16:52.753Z,0.00
2018-04-26T05:17:52.788Z,0.00
2018-04-26T05:18:52.826Z,0.00
2018-04-26T05:19:52.908Z,0.00
2018-04-26T05:20:52.900Z,0.00
2018-04-26T05:21:52.964Z,0.00
2018-04-26T05:22:53.222Z,0.00
2018-04-26T05:23:53.062Z,0.00
2018-04-26T05:24:53.104Z,0.00
2018-04-26T05:25:53.167Z,0.00
2018-04-26T05:27:53.761Z,0.00
2018-04-26T05:28:53.286Z,0.00
2018-04-26T05:29:53.319Z,0.00
2018-04-26T05:30:53.390Z,0.00
2018-04-26T05:31:53.405Z,0.00
2018-04-26T05:32:53.460Z,0.00
2018-04-26T05:33:53.706Z,0.00
2018-04-26T05:34:53.539Z,0.00
2018-04-26T05:35:53.590Z,0.00
2018-04-26T05:36:53.651Z,0.00
2018-04-26T05:37:53.713Z,0.00
2018-04-26T05:38:53.740Z,0.00
2018-04-26T05:39:53.767Z,0.00
2018-04-26T05:40:53.812Z,0.00
2018-04-26T05:41:53.880Z,0.00
2018-04-26T05:42:53.944Z,0.00
2018-04-26T05:43:53.994Z,0.00
2018-04-26T05:44:54.202Z,0.00
2018-04-26T05:45:54.058Z,0.00
2018-04-26T05:46:54.117Z,0.00
2018-04-26T05:47:54.144Z,0.00
2018-04-26T05:48:54.199Z,0.00
2018-04-26T05:49:54.241Z,0.00
2018-04-26T05:50:54.317Z,0.00
2018-04-26T05:51:54.339Z,0.00
2018-04-26T05:52:54.369Z,0.00
2018-04-26T05:53:54.441Z,0.00
2018-04-26T05:54:54.454Z,0.00
2018-04-26T05:55:54.829Z,0.00
2018-04-26T05:56:54.564Z,0.00
2018-04-26T05:57:54.625Z,0.00
2018-04-26T05:58:54.660Z,0.00
2018-04-26T05:59:54.725Z,0.00
2018-04-26T06:00:54.747Z,0.00
2018-04-26T06:01:54.795Z,0.00
2018-04-26T06:02:54.828Z,0.00
2018-04-26T06:03:54.914Z,0.00
2018-04-26T06:04:54.938Z,0.00
2018-04-26T06:05:54.983Z,0.00
2018-04-26T06:06:55.229Z,0.00
2018-04-26T06:07:55.070Z,0.00
2018-04-26T06:08:55.108Z,0.00
2018-04-26T06:09:55.139Z,0.00
2018-04-26T06:10:55.409Z,0.00
2018-04-26T06:11:55.244Z,0.00
2018-04-26T06:12:55.311Z,0.00
2018-04-26T06:13:55.366Z,0.00
2018-04-26T06:14:55.374Z,0.00
2018-04-26T06:15:55.439Z,0.00
2018-04-26T06:16:55.516Z,0.00
2018-04-26T06:17:55.713Z,0.00
2018-04-26T06:18:55.583Z,0.00
2018-04-26T06:19:55.609Z,0.00
2018-04-26T06:21:55.697Z,0.00
2018-04-26T06:22:55.742Z,0.00
2018-04-26T06:23:55.805Z,0.00
2018-04-26T06:24:55.861Z,0.00
2018-04-26T06:25:56.081Z,0.00
2018-04-26T06:27:55.965Z,0.00
2018-04-26T06:28:56.031Z,0.00
2018-04-26T06:29:56.084Z,0.00
2018-04-26T06:30:56.150Z,0.00
2018-04-26T06:31:56.192Z,0.00
2018-04-26T06:33:56.238Z,0.00
2018-04-26T06:34:56.295Z,0.00
2018-04-26T06:35:56.336Z,0.00
2018-04-26T06:36:56.407Z,0.00
2018-04-26T06:37:56.425Z,0.00
2018-04-26T06:38:56.477Z,0.00
2018-04-26T06:39:56.523Z,0.00
2018-04-26T06:40:56.565Z,0.00
2018-04-26T06:41:57.013Z,0.00
2018-04-26T06:42:56.789Z,0.00
2018-04-26T06:43:56.714Z,0.00
2018-04-26T06:44:56.811Z,0.00
2018-04-26T06:45:56.808Z,0.00
2018-04-26T06:46:56.881Z,0.00
2018-04-26T06:47:57.111Z,0.00
2018-04-26T06:48:56.931Z,0.00
2018-04-26T06:49:57.002Z,0.00
2018-04-26T06:50:57.013Z,0.00
2018-04-26T06:51:57.096Z,0.00
2018-04-26T06:52:57.121Z,0.00
2018-04-26T06:53:57.160Z,0.00
2018-04-26T06:54:57.227Z,0.00
2018-04-26T06:55:57.260Z,0.00
2018-04-26T06:56:57.507Z,0.00
2018-04-26T06:57:57.558Z,0.00
2018-04-26T06:58:57.396Z,0.00
2018-04-26T06:59:57.441Z,0.00
2018-04-26T07:00:57.516Z,0.00
2018-04-26T07:01:57.559Z,0.00
2018-04-26T07:03:57.662Z,0.00
2018-04-26T07:04:57.697Z,0.00
2018-04-26T07:05:57.710Z,0.00
2018-04-26T07:06:57.749Z,0.00
2018-04-26T07:07:57.808Z,0.00
2018-04-26T07:08:58.072Z,0.00
2018-04-26T07:09:58.099Z,0.00
2018-04-26T07:10:57.944Z,0.00
2018-04-26T07:11:58.011Z,0.00
2018-04-26T07:13:58.077Z,0.00
2018-04-26T07:14:58.141Z,0.00
2018-04-26T07:15:58.377Z,0.00
2018-04-26T07:16:58.196Z,0.00
2018-04-26T07:17:58.264Z,0.00
2018-04-26T07:18:58.295Z,0.00
2018-04-26T07:19:58.346Z,0.00
2018-04-26T07:20:58.604Z,0.00
2018-04-26T07:21:58.458Z,0.00
2018-04-26T07:22:58.465Z,0.00
2018-04-26T07:23:58.548Z,0.00
2018-04-26T07:24:58.599Z,0.00
2018-04-26T07:25:58.659Z,0.00
2018-04-26T07:26:58.656Z,0.00
2018-04-26T07:28:58.744Z,0.00
2018-04-26T07:29:58.776Z,0.00
2018-04-26T07:30:58.852Z,0.00
2018-04-26T07:31:59.073Z,0.00
2018-04-26T07:32:58.934Z,0.00
2018-04-26T07:33:58.980Z,0.00
2018-04-26T07:34:59.068Z,0.00
2018-04-26T07:35:59.063Z,0.00
2018-04-26T07:36:59.095Z,0.00
2018-04-26T07:37:59.167Z,0.00
2018-04-26T07:38:59.211Z,0.00
2018-04-26T07:39:59.249Z,0.00
2018-04-26T07:40:59.319Z,0.00
2018-04-26T07:41:59.321Z,0.00
2018-04-26T07:42:59.585Z,0.00
2018-04-26T07:43:59.469Z,0.00
2018-04-26T07:44:59.464Z,0.00
2018-04-26T07:45:59.537Z,0.00
2018-04-26T07:46:59.556Z,0.00
2018-04-26T07:47:59.599Z,0.00
2018-04-26T07:48:59.698Z,0.00
2018-04-26T07:49:59.714Z,0.00
2018-04-26T07:50:59.770Z,0.00
2018-04-26T07:51:59.816Z,0.00
2018-04-26T07:52:59.816Z,0.00
2018-04-26T07:54:00.086Z,0.00
2018-04-26T07:54:59.942Z,0.00
2018-04-26T07:55:59.970Z,0.00
2018-04-26T07:57:00.020Z,0.00
2018-04-26T07:58:00.060Z,0.00
2018-04-26T07:59:00.112Z,0.00
2018-04-26T08:00:00.162Z,0.00
2018-04-26T08:01:00.202Z,0.00
2018-04-26T08:02:00.233Z,0.00
2018-04-26T08:03:00.307Z,0.00
2018-04-26T08:04:00.365Z,0.00
2018-04-26T08:05:00.585Z,0.00
2018-04-26T08:06:00.420Z,0.00
2018-04-26T08:07:00.459Z,0.00
2018-04-26T08:08:00.543Z,0.00
2018-04-26T08:09:00.568Z,0.00
2018-04-26T08:10:00.605Z,0.00
2018-04-26T08:11:00.642Z,0.00
2018-04-26T08:12:00.694Z,0.00
2018-04-26T08:13:00.752Z,0.00
2018-04-26T08:14:00.785Z,0.00
2018-04-26T08:15:00.813Z,0.00
2018-04-26T08:16:00.850Z,0.00
2018-04-26T08:17:01.104Z,0.00
2018-04-26T08:18:00.957Z,0.00
2018-04-26T08:19:01.008Z,0.00
2018-04-26T08:20:01.041Z,0.00
2018-04-26T08:21:01.093Z,0.00
2018-04-26T08:22:01.117Z,0.00
2018-04-26T08:23:01.178Z,0.00
2018-04-26T08:24:01.214Z,0.00
2018-04-26T08:25:01.336Z,0.00
2018-04-26T08:26:01.331Z,0.00
2018-04-26T08:27:01.377Z,0.00
2018-04-26T08:28:01.598Z,0.00
2018-04-26T08:29:01.476Z,0.00
2018-04-26T08:30:01.489Z,0.00
2018-04-26T08:31:01.543Z,0.00
2018-04-26T08:32:01.610Z,0.00
2018-04-26T08:33:01.610Z,0.00
2018-04-26T08:35:01.737Z,0.00
2018-04-26T08:36:01.798Z,0.00
2018-04-26T08:37:01.808Z,0.00
2018-04-26T08:38:01.869Z,0.00
2018-04-26T08:39:02.099Z,0.00
2018-04-26T08:40:01.951Z,0.00
2018-04-26T08:41:01.991Z,0.00
2018-04-26T08:42:02.041Z,0.00
2018-04-26T08:43:02.056Z,0.00
2018-04-26T08:44:02.105Z,0.00
2018-04-26T08:45:02.189Z,0.00
2018-04-26T08:46:02.237Z,0.00
2018-04-26T08:47:02.238Z,0.00
2018-04-26T08:48:02.304Z,0.00
2018-04-26T08:49:02.356Z,0.00
2018-04-26T08:50:02.629Z,0.00
2018-04-26T08:51:02.657Z,0.00
2018-04-26T08:52:02.481Z,0.00
2018-04-26T08:53:02.550Z,0.00
2018-04-26T08:54:02.584Z,0.00
2018-04-26T08:55:02.630Z,0.00
2018-04-26T08:56:02.641Z,0.00
2018-04-26T08:57:02.723Z,0.00
2018-04-26T08:58:02.749Z,0.00
2018-04-26T08:59:02.818Z,4.00
2018-04-26T09:00:02.844Z,0.00
2018-04-26T09:01:03.113Z,4.00
2018-04-26T09:02:02.931Z,4.00
2018-04-26T09:03:02.984Z,4.00
2018-04-26T09:04:03.032Z,4.00
2018-04-26T09:06:03.106Z,12.00
2018-04-26T09:07:03.134Z,12.00
2018-04-26T09:08:03.227Z,20.00
2018-04-26T09:09:03.255Z,24.00
2018-04-26T09:10:03.325Z,32.00
2018-04-26T09:11:03.337Z,40.00
2018-04-26T09:12:03.384Z,48.00
2018-04-26T09:13:03.442Z,64.00
2018-04-26T09:14:03.493Z,80.00
2018-04-26T09:16:03.787Z,120.00
2018-04-26T09:17:03.626Z,144.00
2018-04-26T09:18:03.679Z,168.00
2018-04-26T09:19:03.688Z,200.00
2018-04-26T09:20:03.762Z,240.00
2018-04-26T09:21:03.787Z,284.00
2018-04-26T09:22:03.852Z,332.00
2018-04-26T09:23:03.921Z,380.00
2018-04-26T09:24:03.936Z,440.00
2018-04-26T09:25:03.964Z,492.00
2018-04-26T09:26:04.005Z,544.00
2018-04-26T09:27:04.238Z,608.00
2018-04-26T09:28:04.097Z,680.00
2018-04-26T09:29:04.128Z,740.00
2018-04-26T09:30:04.222Z,804.00
2018-04-26T09:31:04.242Z,868.00
2018-04-26T09:32:04.302Z,940.00
2018-04-26T09:33:04.527Z,1020.00
2018-04-26T09:34:04.390Z,1116.00
2018-04-26T09:35:04.625Z,1212.00
2018-04-26T09:36:04.468Z,1312.00
2018-04-26T09:37:04.495Z,1412.00
2018-04-26T09:38:04.534Z,1496.00
2018-04-26T09:39:04.603Z,1588.00
2018-04-26T09:40:04.637Z,1676.00
2018-04-26T09:42:04.720Z,1936.00
2018-04-26T09:43:04.781Z,2140.00
2018-04-26T09:44:05.014Z,2276.00
2018-04-26T09:45:04.887Z,2380.00
2018-04-26T09:46:04.903Z,2588.00
2018-04-26T09:47:04.950Z,2792.00
2018-04-26T09:49:05.277Z,2888.00
2018-04-26T09:50:05.085Z,2956.00
2018-04-26T09:51:05.147Z,3064.00
2018-04-26T09:52:05.179Z,3192.00
2018-04-26T09:53:05.233Z,3292.00
2018-04-26T09:54:05.276Z,3452.00
2018-04-26T09:55:05.311Z,3772.00
2018-04-26T09:56:05.355Z,4076.00
2018-04-26T09:57:05.384Z,4156.00
2018-04-26T09:58:05.452Z,4176.00
2018-04-26T09:59:05.692Z,4192.00
2018-04-26T10:00:05.747Z,4184.00
2018-04-26T10:01:05.582Z,4200.00
2018-04-26T10:02:05.651Z,4328.00
2018-04-26T10:03:05.686Z,4524.00
2018-04-26T10:04:05.717Z,4716.00
2018-04-26T10:05:05.763Z,4872.00
2018-04-26T10:06:06.011Z,4808.00
2018-04-26T10:07:05.864Z,4844.00
2018-04-26T10:08:05.910Z,4960.00
2018-04-26T10:09:05.975Z,5132.00
2018-04-26T10:10:05.989Z,5256.00
2018-04-26T10:11:06.054Z,5456.00
2018-04-26T10:12:06.064Z,5848.00
2018-04-26T10:13:06.121Z,6132.00
2018-04-26T10:14:06.187Z,6188.00
2018-04-26T10:15:06.309Z,6296.00
2018-04-26T10:16:06.269Z,6384.00
2018-04-26T10:17:06.565Z,6380.00
2018-04-26T10:18:06.419Z,7140.00
2018-04-26T10:19:06.396Z,9960.00
2018-04-26T10:20:06.445Z,14244.00
2018-04-26T10:21:06.526Z,12704.00
2018-04-26T10:22:06.524Z,20000.00
2018-04-26T10:23:06.580Z,16416.00
2018-04-26T10:24:06.633Z,25344.00
2018-04-26T10:25:06.683Z,31168.00
2018-04-26T10:26:06.723Z,30656.00
2018-04-26T10:27:06.760Z,28128.00
2018-04-26T10:28:07.023Z,22336.00
2018-04-26T10:29:06.869Z,17600.00
2018-04-26T10:30:06.921Z,21216.00
2018-04-26T10:31:06.936Z,17088.00
2018-04-26T10:32:06.990Z,17888.00
2018-04-26T10:33:07.068Z,26016.00
2018-04-26T10:34:07.090Z,19456.00
2018-04-26T10:35:07.164Z,19328.00
2018-04-26T10:36:07.185Z,18336.00
2018-04-26T10:37:07.241Z,17536.00
2018-04-26T10:38:07.285Z,23392.00
2018-04-26T10:39:07.562Z,17920.00
2018-04-26T10:40:07.386Z,15988.00
2018-04-26T10:41:07.448Z,17504.00
2018-04-26T10:42:07.484Z,20384.00
2018-04-26T10:43:07.550Z,20320.00
2018-04-26T10:44:07.576Z,24064.00
2018-04-26T10:45:07.627Z,20288.00
2018-04-26T10:46:07.680Z,24768.00
2018-04-26T10:47:07.730Z,35968.00
2018-04-26T10:49:07.808Z,41120.00
2018-04-26T10:50:07.903Z,42464.00
2018-04-26T10:51:08.120Z,44224.00
2018-04-26T10:52:07.971Z,40032.00
2018-04-26T10:53:08.033Z,28672.00
2018-04-26T10:54:08.057Z,25152.00
2018-04-26T10:55:08.155Z,23456.00
2018-04-26T10:56:08.160Z,23808.00
2018-04-26T10:57:08.227Z,23424.00
2018-04-26T10:58:08.273Z,24096.00
2018-04-26T10:59:08.329Z,40224.00
2018-04-26T11:00:08.594Z,37664.00
2018-04-26T11:01:08.429Z,30208.00
2018-04-26T11:02:08.662Z,40192.00
2018-04-26T11:03:08.523Z,40768.00
2018-04-26T11:04:08.582Z,44992.00
2018-04-26T11:06:08.697Z,52160.00
2018-04-26T11:07:08.760Z,48000.00
2018-04-26T11:09:08.926Z,52128.00
2018-04-26T11:10:08.888Z,54016.00
2018-04-26T11:11:09.152Z,56736.00
2018-04-26T11:12:08.997Z,46336.00
2018-04-26T11:13:09.248Z,53312.00
2018-04-26T11:14:09.122Z,56064.00
2018-04-26T11:15:09.162Z,45856.00
2018-04-26T11:16:09.207Z,41632.00
2018-04-26T11:17:09.261Z,52384.00
2018-04-26T11:18:09.292Z,44832.00
2018-04-26T11:19:09.403Z,53376.00
2018-04-26T11:21:09.462Z,56992.00
2018-04-26T11:22:09.550Z,56000.00
2018-04-26T11:23:09.591Z,56800.00
2018-04-26T11:24:09.619Z,53728.00
2018-04-26T11:25:09.882Z,57664.00
2018-04-26T11:26:09.756Z,58400.00
2018-04-26T11:27:09.800Z,59360.00
2018-04-26T11:28:09.875Z,59776.00
2018-04-26T11:29:09.906Z,58176.00
2018-04-26T11:30:09.967Z,59936.00
2018-04-26T11:31:10.014Z,62464.00
2018-04-26T11:32:10.064Z,64192.00
2018-04-26T11:33:10.125Z,64192.00
2018-04-26T11:34:10.177Z,50048.00
2018-04-26T11:35:10.216Z,55072.00
2018-04-26T11:36:10.346Z,56672.00
2018-04-26T11:37:10.552Z,56320.00
2018-04-26T11:39:10.453Z,58176.00
2018-04-26T11:40:10.535Z,59968.00
2018-04-26T11:41:10.573Z,60768.00
2018-04-26T11:42:10.633Z,64096.00
2018-04-26T11:43:10.681Z,63040.00
2018-04-26T11:44:10.743Z,60352.00
2018-04-26T11:45:10.797Z,59328.00
2018-04-26T11:46:10.867Z,62176.00
2018-04-26T11:47:10.900Z,65504.00
2018-04-26T11:48:10.941Z,68160.00
2018-04-26T11:49:11.205Z,61920.00
2018-04-26T11:50:11.081Z,62848.00
2018-04-26T11:51:11.151Z,64384.00
2018-04-26T11:52:11.176Z,67840.00
2018-04-26T11:53:11.238Z,67392.00
2018-04-26T11:54:11.323Z,68800.00
2018-04-26T11:55:11.335Z,68224.00
2018-04-26T11:56:11.380Z,69760.00
2018-04-26T11:57:11.432Z,69632.00
2018-04-26T11:58:11.504Z,68960.00
2018-04-26T11:59:11.565Z,69120.00
2018-04-26T12:00:11.609Z,71424.00
2018-04-26T12:01:11.867Z,68352.00
2018-04-26T12:02:11.816Z,70464.00
2018-04-26T12:03:11.787Z,76064.00
2018-04-26T12:04:11.861Z,73664.00
2018-04-26T12:05:11.895Z,76384.00
2018-04-26T12:06:11.974Z,76384.00
2018-04-26T12:07:12.011Z,78432.00
2018-04-26T12:08:12.067Z,81120.00
2018-04-26T12:09:12.143Z,84736.00
2018-04-26T12:10:12.160Z,82816.00
2018-04-26T12:11:12.249Z,66560.00
2018-04-26T12:12:12.297Z,47936.00
2018-04-26T12:13:12.618Z,58048.00
2018-04-26T12:15:12.446Z,62976.00
2018-04-26T12:16:12.503Z,58848.00
2018-04-26T12:17:12.590Z,59616.00
2018-04-26T12:18:12.611Z,60768.00
2018-04-26T12:19:12.685Z,67392.00
2018-04-26T12:20:12.729Z,72512.00
2018-04-26T12:21:12.802Z,67456.00
2018-04-26T12:22:12.860Z,66624.00
2018-04-26T12:23:12.900Z,64128.00
2018-04-26T12:24:12.952Z,62976.00
2018-04-26T12:25:13.060Z,58816.00
2018-04-26T12:26:13.083Z,57344.00
2018-04-26T12:27:13.145Z,57152.00
2018-04-26T12:28:13.187Z,35296.00
2018-04-26T12:29:13.336Z,29184.00
2018-04-26T12:30:13.298Z,34656.00
2018-04-26T12:31:13.384Z,34560.00
2018-04-26T12:32:13.414Z,35104.00
2018-04-26T12:33:13.675Z,42880.00
2018-04-26T12:34:13.534Z,57248.00
2018-04-26T12:35:13.688Z,57728.00
2018-04-26T12:36:13.639Z,58624.00
2018-04-26T12:37:13.688Z,54592.00
2018-04-26T12:38:13.968Z,50528.00
2018-04-26T12:40:13.884Z,51488.00
2018-04-26T12:41:13.921Z,54016.00
2018-04-26T12:42:14.015Z,58144.00
2018-04-26T12:43:14.036Z,60448.00
2018-04-26T12:44:14.308Z,62912.00
2018-04-26T12:45:14.157Z,64480.00
2018-04-26T12:46:14.234Z,62304.00
2018-04-26T12:47:14.293Z,61728.00
2018-04-26T12:48:14.329Z,63584.00
2018-04-26T12:49:14.409Z,66240.00
2018-04-26T12:50:14.491Z,67488.00
2018-04-26T12:51:14.493Z,68704.00
2018-04-26T12:52:14.553Z,61344.00
2018-04-26T12:53:14.611Z,62720.00
2018-04-26T12:54:14.662Z,64832.00
2018-04-26T12:55:14.929Z,62880.00
2018-04-26T12:56:14.809Z,61824.00
2018-04-26T12:57:14.865Z,60928.00
2018-04-26T12:58:14.925Z,61088.00
2018-04-26T12:59:14.974Z,60768.00
2018-04-26T13:00:15.009Z,64320.00
2018-04-26T13:02:15.156Z,66112.00
2018-04-26T13:03:15.210Z,68096.00
2018-04-26T13:04:15.276Z,68288.00
2018-04-26T13:05:15.316Z,69344.00
2018-04-26T13:06:15.364Z,71936.00
2018-04-26T13:07:15.418Z,71328.00
2018-04-26T13:08:15.490Z,72288.00
2018-04-26T13:09:15.560Z,67168.00
2018-04-26T13:10:15.626Z,63488.00
2018-04-26T13:11:15.678Z,64896.00
2018-04-26T13:12:15.717Z,68352.00
2018-04-26T13:13:15.767Z,71584.00
2018-04-26T13:14:15.829Z,74944.00
2018-04-26T13:15:16.117Z,72576.00
2018-04-26T13:16:16.152Z,71904.00
2018-04-26T13:17:16.004Z,76160.00
2018-04-26T13:18:16.064Z,77312.00
2018-04-26T13:19:16.135Z,76320.00
2018-04-26T13:20:16.188Z,77472.00
2018-04-26T13:21:16.415Z,75712.00
2018-04-26T13:22:16.636Z,77184.00
2018-04-26T13:23:16.369Z,76032.00
2018-04-26T13:25:16.489Z,75424.00
2018-04-26T13:27:16.629Z,72736.00
2018-04-26T13:28:16.648Z,71840.00
2018-04-26T13:29:16.710Z,74432.00
2018-04-26T13:30:16.780Z,77504.00